Time;durP1;ratioP1;P1;durP2;ratioP2;P2;SDS_P1;SDS_P2;PMS_P1;PMS_P2;Temp;Humidity;BMP_temperature;BMP_pressure;BME280_temperature;BME280_humidity;BME280_pressure;Samples;Min_cycle;Max_cycle;Signal;HPM_P1;HPM_P2
2021/06/07 00:01:55;;;;;;;5.95;3.88;;;;;;;;;;5078868;28;20871;-72
2021/06/07 00:04:39;;;;;;;5.88;3.50;;;;;;;;;;5071117;28;20054;-73
2021/06/07 00:07:24;;;;;;;4.18;3.30;;;;;;;;;;5070487;28;20062;-72
2021/06/07 00:10:09;;;;;;;4.78;3.78;;;;;;;;;;5057268;28;20046;-73
2021/06/07 00:12:54;;;;;;;5.57;3.60;;;;;;;;;;5089310;28;20124;-73
2021/06/07 00:15:38;;;;;;;6.00;3.70;;;;;;;;;;5070438;28;20272;-74
2021/06/07 00:18:24;;;;;;;4.65;3.17;;;;;;;;;;5085405;28;20089;-73
2021/06/07 00:21:12;;;;;;;5.20;3.58;;;;;;;;;;5077114;28;20128;-72
2021/06/07 00:23:58;;;;;;;3.72;3.17;;;;;;;;;;5070560;28;20074;-73
2021/06/07 00:26:42;;;;;;;4.63;3.33;;;;;;;;;;5084817;28;20432;-73
2021/06/07 00:29:27;;;;;;;4.55;3.33;;;;;;;;;;5073023;28;20507;-74
2021/06/07 00:32:12;;;;;;;4.30;3.15;;;;;;;;;;5076749;28;20052;-73
2021/06/07 00:34:56;;;;;;;4.13;3.40;;;;;;;;;;5084401;28;20376;-73
2021/06/07 00:37:41;;;;;;;5.57;3.20;;;;;;;;;;5091018;28;20043;-74
2021/06/07 00:40:27;;;;;;;5.50;3.22;;;;;;;;;;5055848;28;20085;-74
2021/06/07 00:43:11;;;;;;;4.63;3.10;;;;;;;;;;5069709;28;20062;-74
2021/06/07 00:45:56;;;;;;;5.93;3.58;;;;;;;;;;5069982;28;20042;-73
2021/06/07 00:48:40;;;;;;;3.63;3.05;;;;;;;;;;5049920;28;20082;-73
2021/06/07 00:51:25;;;;;;;5.65;3.58;;;;;;;;;;5068655;28;20141;-74
2021/06/07 00:54:09;;;;;;;5.30;2.92;;;;;;;;;;5051384;28;20408;-74
2021/06/07 00:56:54;;;;;;;3.83;2.80;;;;;;;;;;5073280;28;20042;-73
2021/06/07 00:59:38;;;;;;;4.35;2.83;;;;;;;;;;5069334;28;20035;-73
2021/06/07 01:02:23;;;;;;;4.57;3.10;;;;;;;;;;5055363;28;20065;-73
2021/06/07 01:05:08;;;;;;;4.40;3.15;;;;;;;;;;5061103;28;20454;-74
2021/06/07 01:07:53;;;;;;;4.63;2.88;;;;;;;;;;5054970;28;20089;-74
2021/06/07 01:10:37;;;;;;;3.90;2.83;;;;;;;;;;5065592;28;20280;-73
2021/06/07 01:13:22;;;;;;;3.30;2.92;;;;;;;;;;5048212;28;20047;-73
2021/06/07 01:16:07;;;;;;;5.05;2.92;;;;;;;;;;5069223;28;20476;-74
2021/06/07 01:18:51;;;;;;;3.40;2.97;;;;;;;;;;5084382;28;20070;-73
2021/06/07 01:21:36;;;;;;;3.80;2.92;;;;;;;;;;5050817;28;20043;-73
2021/06/07 01:24:21;;;;;;;3.42;3.03;;;;;;;;;;5061021;28;20822;-73
2021/06/07 01:27:05;;;;;;;5.35;3.20;;;;;;;;;;5069281;28;20053;-73
2021/06/07 01:29:50;;;;;;;3.95;2.72;;;;;;;;;;5049054;28;20074;-73
2021/06/07 01:32:35;;;;;;;3.80;2.92;;;;;;;;;;5055576;28;20134;-73
2021/06/07 01:35:20;;;;;;;4.25;2.60;;;;;;;;;;5095865;28;20047;-73
2021/06/07 01:38:05;;;;;;;3.78;2.67;;;;;;;;;;5066182;28;20503;-73
2021/06/07 01:40:51;;;;;;;4.50;2.75;;;;;;;;;;5069508;28;20062;-73
2021/06/07 01:43:36;;;;;;;3.95;2.80;;;;;;;;;;5059137;28;20054;-74
2021/06/07 01:46:21;;;;;;;3.67;2.90;;;;;;;;;;5052623;28;20117;-73
2021/06/07 01:49:05;;;;;;;4.05;2.65;;;;;;;;;;5046031;28;20143;-73
2021/06/07 01:51:50;;;;;;;4.25;3.00;;;;;;;;;;5067993;28;20131;-73
2021/06/07 01:54:34;;;;;;;2.70;2.33;;;;;;;;;;5069519;28;20557;-73
2021/06/07 01:57:19;;;;;;;2.88;2.50;;;;;;;;;;5071340;28;20161;-73
2021/06/07 02:00:06;;;;;;;3.10;2.58;;;;;;;;;;5059508;28;20169;-73
2021/06/07 02:02:51;;;;;;;4.20;2.75;;;;;;;;;;5071279;28;20042;-73
2021/06/07 02:05:36;;;;;;;3.72;2.45;;;;;;;;;;5071106;28;20082;-73
2021/06/07 02:08:21;;;;;;;3.63;2.70;;;;;;;;;;5073644;28;20123;-73
2021/06/07 02:11:09;;;;;;;3.22;2.30;;;;;;;;;;5069126;28;20081;-73
2021/06/07 02:13:57;;;;;;;4.00;2.60;;;;;;;;;;5055211;28;20052;-73
2021/06/07 02:16:41;;;;;;;3.65;2.60;;;;;;;;;;5086104;28;20081;-73
2021/06/07 02:19:26;;;;;;;3.30;2.70;;;;;;;;;;5051675;28;20123;-73
2021/06/07 02:22:10;;;;;;;3.17;2.40;;;;;;;;;;5086819;28;20404;-73
2021/06/07 02:24:55;;;;;;;3.63;2.50;;;;;;;;;;5070679;28;20051;-73
2021/06/07 02:27:39;;;;;;;3.20;2.50;;;;;;;;;;5085830;28;20098;-73
2021/06/07 02:30:25;;;;;;;4.45;2.45;;;;;;;;;;5086510;28;20039;-73
2021/06/07 02:33:10;;;;;;;4.32;2.90;;;;;;;;;;5070462;28;20430;-73
2021/06/07 02:35:54;;;;;;;3.35;2.88;;;;;;;;;;5086499;28;20070;-73
2021/06/07 02:38:39;;;;;;;3.10;2.30;;;;;;;;;;5083585;28;20093;-73
2021/06/07 02:41:24;;;;;;;3.47;2.30;;;;;;;;;;5071031;28;20594;-73
2021/06/07 02:44:08;;;;;;;3.92;2.38;;;;;;;;;;5064289;28;20051;-73
2021/06/07 02:46:53;;;;;;;4.03;2.50;;;;;;;;;;5070432;28;20466;-73
2021/06/07 02:49:38;;;;;;;2.70;2.45;;;;;;;;;;5085688;28;20039;-73
2021/06/07 02:52:22;;;;;;;4.05;2.70;;;;;;;;;;5074849;28;20039;-73
2021/06/07 02:55:07;;;;;;;3.53;2.65;;;;;;;;;;5081605;28;20077;-73
2021/06/07 02:57:52;;;;;;;3.38;2.70;;;;;;;;;;5059979;28;20089;-73
2021/06/07 03:00:41;;;;;;;4.60;2.55;;;;;;;;;;5054597;28;20128;-73
2021/06/07 03:03:26;;;;;;;4.00;2.92;;;;;;;;;;5082790;28;20074;-73
2021/06/07 03:06:10;;;;;;;4.65;2.80;;;;;;;;;;5079277;28;20105;-73
2021/06/07 03:08:55;;;;;;;3.72;2.85;;;;;;;;;;5073742;28;20142;-73
2021/06/07 03:11:39;;;;;;;4.70;2.90;;;;;;;;;;5089679;28;20039;-73
2021/06/07 03:14:24;;;;;;;3.10;2.65;;;;;;;;;;5073856;28;20035;-73
2021/06/07 03:17:09;;;;;;;3.42;2.63;;;;;;;;;;5088855;28;20117;-73
2021/06/07 03:19:53;;;;;;;4.82;2.90;;;;;;;;;;5089102;28;20039;-73
2021/06/07 03:22:38;;;;;;;4.07;2.72;;;;;;;;;;5086257;28;20131;-73
2021/06/07 03:25:22;;;;;;;4.25;3.03;;;;;;;;;;5059538;28;20078;-73
2021/06/07 03:28:07;;;;;;;5.63;3.10;;;;;;;;;;5067692;28;20060;-73
2021/06/07 03:30:52;;;;;;;3.70;2.80;;;;;;;;;;5068220;28;20173;-73
2021/06/07 03:33:37;;;;;;;4.20;2.70;;;;;;;;;;5059764;28;20047;-73
2021/06/07 03:36:22;;;;;;;5.28;3.33;;;;;;;;;;5067462;28;20043;-73
2021/06/07 03:39:07;;;;;;;6.05;2.90;;;;;;;;;;5080741;28;20082;-73
2021/06/07 03:41:51;;;;;;;4.95;2.97;;;;;;;;;;5065573;28;20047;-73
2021/06/07 03:44:36;;;;;;;6.10;3.17;;;;;;;;;;5065727;28;20060;-73
2021/06/07 03:47:20;;;;;;;3.95;3.10;;;;;;;;;;5068068;28;20089;-73
2021/06/07 03:50:06;;;;;;;5.65;3.28;;;;;;;;;;5071197;28;20058;-73
2021/06/07 03:52:50;;;;;;;5.50;3.25;;;;;;;;;;5053348;28;20089;-73
2021/06/07 03:55:35;;;;;;;5.43;3.08;;;;;;;;;;5052380;28;20039;-73
2021/06/07 03:58:20;;;;;;;5.55;3.22;;;;;;;;;;5051711;28;20073;-73
2021/06/07 04:01:04;;;;;;;4.22;3.40;;;;;;;;;;5066358;28;20058;-73
2021/06/07 04:03:49;;;;;;;4.95;3.63;;;;;;;;;;5062953;28;20120;-73
2021/06/07 04:06:33;;;;;;;4.50;3.40;;;;;;;;;;5067291;28;20051;-73
2021/06/07 04:09:18;;;;;;;6.13;3.53;;;;;;;;;;5051841;28;20040;-73
2021/06/07 04:12:02;;;;;;;5.88;3.40;;;;;;;;;;5057135;28;20039;-73
2021/06/07 04:14:47;;;;;;;5.40;3.47;;;;;;;;;;5073234;28;21324;-73
2021/06/07 04:17:31;;;;;;;5.90;3.75;;;;;;;;;;5066615;28;20082;-73
2021/06/07 04:20:16;;;;;;;5.95;3.70;;;;;;;;;;5051152;28;20058;-73
2021/06/07 04:23:01;;;;;;;6.13;3.70;;;;;;;;;;5066411;28;20100;-73
2021/06/07 04:25:46;;;;;;;6.10;3.80;;;;;;;;;;5057483;28;20063;-73
2021/06/07 04:28:33;;;;;;;6.63;3.55;;;;;;;;;;5077535;28;20059;-73
2021/06/07 04:31:18;;;;;;;5.82;3.45;;;;;;;;;;5066345;28;20074;-73
2021/06/07 04:34:02;;;;;;;6.40;3.78;;;;;;;;;;5067017;28;20043;-73
2021/06/07 04:36:47;;;;;;;6.07;3.83;;;;;;;;;;5066257;28;20051;-73
2021/06/07 04:39:31;;;;;;;5.20;3.80;;;;;;;;;;5066614;28;20124;-73
2021/06/07 04:42:16;;;;;;;5.55;3.63;;;;;;;;;;5041551;28;20050;-73
2021/06/07 04:45:01;;;;;;;8.20;3.88;;;;;;;;;;5067731;28;20511;-73
2021/06/07 04:47:46;;;;;;;5.78;4.05;;;;;;;;;;5066099;28;20043;-73
2021/06/07 04:50:31;;;;;;;7.28;3.80;;;;;;;;;;5063524;28;20051;-74
2021/06/07 04:53:16;;;;;;;5.63;4.13;;;;;;;;;;5045288;28;20043;-73
2021/06/07 04:56:00;;;;;;;6.05;4.00;;;;;;;;;;5063032;28;20043;-73
2021/06/07 04:58:45;;;;;;;7.18;4.10;;;;;;;;;;5047238;28;20116;-73
2021/06/07 05:01:29;;;;;;;5.53;4.20;;;;;;;;;;5044350;28;20538;-73
2021/06/07 05:04:14;;;;;;;5.85;3.78;;;;;;;;;;5063253;28;20047;-73
2021/06/07 05:06:58;;;;;;;6.38;3.95;;;;;;;;;;5043927;28;20040;-74
2021/06/07 05:09:43;;;;;;;5.53;4.00;;;;;;;;;;5064767;28;20098;-74
2021/06/07 05:12:27;;;;;;;6.82;4.20;;;;;;;;;;5062892;28;20401;-73
2021/06/07 05:15:13;;;;;;;5.63;3.63;;;;;;;;;;5049869;28;20047;-73
2021/06/07 05:17:58;;;;;;;6.32;3.80;;;;;;;;;;5049871;28;20077;-73
2021/06/07 05:20:44;;;;;;;5.10;3.60;;;;;;;;;;5073079;28;20055;-74
2021/06/07 05:23:28;;;;;;;6.18;4.30;;;;;;;;;;5065521;28;20052;-73
2021/06/07 05:26:13;;;;;;;6.72;4.00;;;;;;;;;;5063442;28;20121;-74
2021/06/07 05:28:57;;;;;;;6.15;3.95;;;;;;;;;;5063350;28;20059;-73
2021/06/07 05:31:42;;;;;;;7.50;4.00;;;;;;;;;;5063146;28;20035;-73
2021/06/07 05:34:27;;;;;;;6.00;4.00;;;;;;;;;;5063856;28;20086;-74
2021/06/07 05:37:11;;;;;;;6.30;4.18;;;;;;;;;;5064041;28;20042;-73
2021/06/07 05:39:56;;;;;;;6.25;3.92;;;;;;;;;;5063043;28;20205;-74
2021/06/07 05:42:40;;;;;;;7.18;3.97;;;;;;;;;;5062876;28;20062;-74
2021/06/07 05:45:25;;;;;;;6.47;3.80;;;;;;;;;;5049395;28;20135;-73
2021/06/07 05:48:09;;;;;;;4.70;3.47;;;;;;;;;;5062732;28;20035;-74
2021/06/07 05:50:54;;;;;;;6.50;4.10;;;;;;;;;;5064273;28;20106;-73
2021/06/07 05:53:38;;;;;;;4.53;3.33;;;;;;;;;;5067791;28;20055;-73
2021/06/07 05:56:22;;;;;;;4.20;3.20;;;;;;;;;;5063615;28;20116;-73
2021/06/07 05:59:07;;;;;;;6.15;3.47;;;;;;;;;;5063095;28;20083;-73
2021/06/07 06:01:51;;;;;;;6.38;3.78;;;;;;;;;;5041511;28;20117;-73
2021/06/07 06:04:36;;;;;;;5.55;3.38;;;;;;;;;;5060913;28;20428;-73
2021/06/07 06:07:20;;;;;;;5.18;3.60;;;;;;;;;;5061162;28;20136;-73
2021/06/07 06:10:05;;;;;;;4.57;3.20;;;;;;;;;;5067427;28;20593;-74
2021/06/07 06:12:49;;;;;;;7.28;3.80;;;;;;;;;;5052015;28;20039;-73
2021/06/07 06:15:34;;;;;;;5.20;3.42;;;;;;;;;;5055306;28;20170;-73
2021/06/07 06:18:19;;;;;;;5.55;3.55;;;;;;;;;;5062598;28;20048;-75
2021/06/07 06:21:04;;;;;;;5.10;2.88;;;;;;;;;;5046608;28;20120;-73
2021/06/07 06:23:48;;;;;;;4.43;3.15;;;;;;;;;;5063124;28;20122;-73
2021/06/07 06:26:33;;;;;;;5.10;3.22;;;;;;;;;;5053942;28;20052;-74
2021/06/07 06:29:18;;;;;;;5.53;3.60;;;;;;;;;;5087679;28;20396;-73
2021/06/07 06:32:03;;;;;;;4.43;3.20;;;;;;;;;;5072808;28;20047;-73
2021/06/07 06:34:48;;;;;;;4.93;3.50;;;;;;;;;;5057455;28;20034;-75
2021/06/07 06:37:33;;;;;;;3.78;2.80;;;;;;;;;;5064719;28;20039;-73
2021/06/07 06:40:22;;;;;;;4.40;2.88;;;;;;;;;;5072288;28;20550;-73
2021/06/07 06:43:07;;;;;;;3.08;2.47;;;;;;;;;;5072643;28;20059;-73
2021/06/07 06:45:51;;;;;;;5.65;3.25;;;;;;;;;;5057469;28;20046;-73
2021/06/07 06:48:36;;;;;;;4.95;3.08;;;;;;;;;;5052847;28;20046;-73
2021/06/07 06:51:20;;;;;;;3.95;3.17;;;;;;;;;;5088566;28;20504;-74
2021/06/07 06:54:05;;;;;;;4.47;2.83;;;;;;;;;;5087643;28;20671;-74
2021/06/07 06:56:51;;;;;;;4.50;2.70;;;;;;;;;;5061479;28;20042;-73
2021/06/07 06:59:36;;;;;;;4.75;2.58;;;;;;;;;;5072217;28;20039;-73
2021/06/07 07:02:20;;;;;;;4.68;2.83;;;;;;;;;;5087141;28;20420;-73
2021/06/07 07:05:05;;;;;;;4.95;2.83;;;;;;;;;;5056960;28;20554;-74
2021/06/07 07:07:50;;;;;;;3.42;2.50;;;;;;;;;;5071106;28;20075;-72
2021/06/07 07:10:35;;;;;;;4.47;2.78;;;;;;;;;;5074279;28;20086;-73
2021/06/07 07:13:20;;;;;;;4.18;2.50;;;;;;;;;;5052261;28;20043;-73
2021/06/07 07:16:04;;;;;;;4.57;2.45;;;;;;;;;;5083475;28;20097;-75
2021/06/07 07:18:49;;;;;;;3.30;2.50;;;;;;;;;;5067651;28;20089;-73
2021/06/07 07:21:34;;;;;;;3.75;2.42;;;;;;;;;;5057208;28;20121;-73
2021/06/07 07:24:18;;;;;;;3.35;2.20;;;;;;;;;;5080141;28;20503;-73
2021/06/07 07:27:05;;;;;;;4.13;2.30;;;;;;;;;;5071018;28;20240;-73
2021/06/07 07:29:50;;;;;;;3.53;2.30;;;;;;;;;;5070689;28;20076;-73
2021/06/07 07:32:35;;;;;;;3.00;2.05;;;;;;;;;;5056805;28;20043;-74
2021/06/07 07:35:19;;;;;;;4.82;2.42;;;;;;;;;;5075109;28;20046;-74
2021/06/07 07:38:04;;;;;;;2.67;2.20;;;;;;;;;;5070943;28;20125;-73
2021/06/07 07:40:49;;;;;;;3.60;2.25;;;;;;;;;;5061476;28;20563;-73
2021/06/07 07:43:33;;;;;;;2.90;1.98;;;;;;;;;;5070941;28;20128;-74
2021/06/07 07:46:18;;;;;;;2.88;2.20;;;;;;;;;;5070872;28;20574;-74
2021/06/07 07:49:02;;;;;;;4.72;2.40;;;;;;;;;;5070973;28;20420;-73
2021/06/07 07:51:47;;;;;;;4.03;2.30;;;;;;;;;;5086507;28;20046;-73
2021/06/07 07:54:32;;;;;;;3.85;2.28;;;;;;;;;;5071271;28;20093;-73
2021/06/07 07:57:17;;;;;;;3.85;2.08;;;;;;;;;;5069748;28;20046;-72
2021/06/07 08:00:02;;;;;;;3.05;2.25;;;;;;;;;;5070564;28;20073;-73
2021/06/07 08:02:47;;;;;;;3.30;2.15;;;;;;;;;;5065246;28;20066;-74
2021/06/07 08:05:31;;;;;;;2.42;1.90;;;;;;;;;;5070167;28;20039;-73
2021/06/07 08:08:16;;;;;;;2.85;1.70;;;;;;;;;;5070637;28;20046;-74
2021/06/07 08:11:01;;;;;;;2.70;2.00;;;;;;;;;;5071040;28;20119;-73
2021/06/07 08:13:46;;;;;;;3.00;1.98;;;;;;;;;;5070762;28;20054;-73
2021/06/07 08:16:30;;;;;;;3.35;2.13;;;;;;;;;;5070484;28;20066;-73
2021/06/07 08:19:15;;;;;;;3.50;2.25;;;;;;;;;;5070681;28;20115;-73
2021/06/07 08:21:59;;;;;;;3.45;2.00;;;;;;;;;;5076499;28;20077;-73
2021/06/07 08:24:44;;;;;;;3.55;2.20;;;;;;;;;;5054972;28;20082;-73
2021/06/07 08:27:29;;;;;;;3.13;1.80;;;;;;;;;;5076963;28;20290;-73
2021/06/07 08:30:15;;;;;;;3.83;1.90;;;;;;;;;;5069209;28;20084;-74
2021/06/07 08:32:59;;;;;;;3.20;2.20;;;;;;;;;;5069643;28;20089;-74
2021/06/07 08:35:44;;;;;;;3.20;2.10;;;;;;;;;;5070029;28;20573;-74
2021/06/07 08:38:29;;;;;;;3.67;2.10;;;;;;;;;;5069449;28;20149;-74
2021/06/07 08:41:14;;;;;;;3.58;2.20;;;;;;;;;;5057200;28;20597;-73
2021/06/07 08:43:58;;;;;;;2.83;2.20;;;;;;;;;;5084961;28;20074;-73
2021/06/07 08:46:45;;;;;;;3.17;2.10;;;;;;;;;;5063476;28;20038;-73
2021/06/07 08:49:29;;;;;;;3.83;2.00;;;;;;;;;;5083127;28;20863;-73
2021/06/07 08:52:15;;;;;;;3.20;2.15;;;;;;;;;;5069140;28;20503;-71
2021/06/07 08:54:59;;;;;;;3.60;2.30;;;;;;;;;;5069317;28;20051;-72
2021/06/07 08:57:45;;;;;;;3.53;2.42;;;;;;;;;;5051101;28;20683;-72
2021/06/07 09:00:30;;;;;;;4.07;2.30;;;;;;;;;;5069131;28;20042;-72
2021/06/07 09:03:15;;;;;;;3.35;1.90;;;;;;;;;;5067753;28;20189;-73
2021/06/07 09:06:00;;;;;;;3.05;2.22;;;;;;;;;;5085639;28;20132;-72
2021/06/07 09:08:45;;;;;;;2.90;2.13;;;;;;;;;;5067637;28;20058;-73
2021/06/07 09:11:31;;;;;;;4.43;2.30;;;;;;;;;;5074761;28;20172;-72
2021/06/07 09:14:23;;;;;;;4.03;2.28;;;;;;;;;;5073164;28;20140;-72
2021/06/07 09:17:08;;;;;;;;;;;;;;;;;;5097351;28;20030;-73
2021/06/07 09:20:08;;;;;;;2.28;1.80;;;;;;;;;;5082372;28;19914;-73
2021/06/07 09:22:57;;;;;;;4.25;2.03;;;;;;;;;;5056983;28;20096;-72
2021/06/07 09:25:44;;;;;;;2.90;2.05;;;;;;;;;;5056903;28;20051;-72
2021/06/07 09:28:29;;;;;;;3.65;2.33;;;;;;;;;;5083760;28;20055;-72
2021/06/07 09:31:13;;;;;;;3.03;2.33;;;;;;;;;;5083430;28;20151;-72
2021/06/07 09:34:01;;;;;;;3.42;2.20;;;;;;;;;;5068742;28;20531;-72
2021/06/07 09:36:45;;;;;;;4.18;2.25;;;;;;;;;;5092226;28;20047;-72
2021/06/07 09:39:30;;;;;;;3.47;2.30;;;;;;;;;;5049202;28;20401;-72
2021/06/07 09:42:16;;;;;;;3.70;2.30;;;;;;;;;;5097039;28;20062;-72
2021/06/07 09:45:01;;;;;;;2.90;2.13;;;;;;;;;;5069105;28;20649;-72
2021/06/07 09:47:45;;;;;;;2.75;2.03;;;;;;;;;;5083810;28;20442;-72
2021/06/07 09:50:30;;;;;;;3.28;2.28;;;;;;;;;;5068541;28;20042;-73
2021/06/07 09:53:16;;;;;;;4.38;2.63;;;;;;;;;;5070398;28;20071;-72
2021/06/07 09:56:04;;;;;;;3.15;2.10;;;;;;;;;;5068453;28;20222;-73
2021/06/07 09:58:49;;;;;;;2.60;2.28;;;;;;;;;;5068475;28;20043;-73
2021/06/07 10:01:43;;;;;;;3.55;2.17;;;;;;;;;;5068160;28;20176;-73
2021/06/07 10:04:46;;;;;;;3.10;2.30;;;;;;;;;;5070310;28;20412;-73
2021/06/07 10:07:31;;;;;;;3.47;2.25;;;;;;;;;;5083210;28;20090;-73
2021/06/07 10:10:18;;;;;;;3.15;2.15;;;;;;;;;;5074978;28;20055;-73
2021/06/07 10:13:07;;;;;;;2.83;2.20;;;;;;;;;;5073210;28;20101;-74
2021/06/07 10:15:52;;;;;;;4.78;2.33;;;;;;;;;;5077229;28;20042;-73
2021/06/07 10:18:37;;;;;;;2.97;2.10;;;;;;;;;;5066759;28;20046;-73
2021/06/07 10:21:22;;;;;;;3.05;2.20;;;;;;;;;;5067980;28;20042;-73
2021/06/07 10:24:06;;;;;;;2.75;2.30;;;;;;;;;;5068536;28;20059;-73
2021/06/07 10:26:51;;;;;;;2.67;2.35;;;;;;;;;;5055823;28;20519;-73
2021/06/07 10:29:43;;;;;;;4.53;2.50;;;;;;;;;;5068566;28;20052;-73
2021/06/07 10:32:29;;;;;;;3.53;2.42;;;;;;;;;;5048940;28;20062;-73
2021/06/07 10:35:14;;;;;;;3.97;2.40;;;;;;;;;;5060510;28;20071;-73
2021/06/07 10:38:08;;;;;;;2.80;2.20;;;;;;;;;;5068808;28;20039;-73
2021/06/07 10:40:53;;;;;;;3.05;2.40;;;;;;;;;;5083712;28;20123;-73
2021/06/07 10:43:45;;;;;;;2.45;2.00;;;;;;;;;;5068894;28;20464;-73
2021/06/07 10:46:29;;;;;;;3.50;2.58;;;;;;;;;;5068640;28;20043;-73
2021/06/07 10:49:33;;;;;;;3.53;2.50;;;;;;;;;;5078668;28;20051;-73
2021/06/07 10:52:25;;;;;;;3.20;2.42;;;;;;;;;;5080891;28;20074;-72
2021/06/07 10:55:13;;;;;;;2.83;2.20;;;;;;;;;;5089136;28;20047;-72
2021/06/07 10:57:59;;;;;;;3.20;2.38;;;;;;;;;;5077642;28;20043;-73
2021/06/07 11:00:47;;;;;;;3.22;2.50;;;;;;;;;;5073563;28;20046;-73
2021/06/07 11:03:33;;;;;;;2.85;2.50;;;;;;;;;;5087314;28;20398;-73
2021/06/07 11:06:17;;;;;;;4.28;2.45;;;;;;;;;;5059709;28;20092;-73
2021/06/07 11:09:06;;;;;;;3.58;2.25;;;;;;;;;;5067589;28;20043;-74
2021/06/07 11:11:51;;;;;;;2.53;2.20;;;;;;;;;;5080193;28;20581;-72
2021/06/07 11:14:55;;;;;;;4.05;2.42;;;;;;;;;;5073719;28;20042;-73
2021/06/07 11:17:41;;;;;;;4.47;2.38;;;;;;;;;;5088849;28;20035;-72
2021/06/07 11:20:33;;;;;;;3.00;2.10;;;;;;;;;;5071996;28;20069;-72
2021/06/07 11:23:18;;;;;;;4.55;2.80;;;;;;;;;;5080310;28;20030;-72
2021/06/07 11:26:03;;;;;;;4.05;2.33;;;;;;;;;;5093193;28;20055;-73
2021/06/07 11:28:48;;;;;;;3.78;2.22;;;;;;;;;;5069298;28;20071;-72
2021/06/07 11:31:33;;;;;;;4.78;2.67;;;;;;;;;;5078039;28;20092;-72
2021/06/07 11:34:20;;;;;;;4.47;2.20;;;;;;;;;;5071129;28;20031;-72
2021/06/07 11:37:06;;;;;;;3.67;2.25;;;;;;;;;;5067948;28;20658;-72
2021/06/07 11:39:51;;;;;;;3.58;2.45;;;;;;;;;;5077163;28;20035;-72
2021/06/07 11:42:54;;;;;;;3.90;2.33;;;;;;;;;;5071506;28;20926;-73
2021/06/07 11:45:40;;;;;;;3.05;2.33;;;;;;;;;;5067193;28;20623;-72
2021/06/07 11:48:37;;;;;;;3.10;2.30;;;;;;;;;;5087814;28;20042;-72
2021/06/07 11:51:28;;;;;;;3.65;2.40;;;;;;;;;;5084120;28;20043;-72
2021/06/07 11:54:25;;;;;;;3.65;2.13;;;;;;;;;;5091985;28;20324;-72
2021/06/07 11:57:10;;;;;;;3.22;2.45;;;;;;;;;;5085606;28;20054;-72
2021/06/07 11:59:58;;;;;;;3.33;2.30;;;;;;;;;;5079296;28;20051;-72
2021/06/07 12:02:43;;;;;;;2.30;2.10;;;;;;;;;;5056064;28;20051;-73
2021/06/07 12:05:27;;;;;;;4.68;2.30;;;;;;;;;;5072327;28;20562;-72
2021/06/07 12:08:14;;;;;;;3.08;2.45;;;;;;;;;;5070348;28;20050;-73
2021/06/07 12:11:03;;;;;;;3.90;2.30;;;;;;;;;;5059704;28;20054;-72
2021/06/07 12:13:47;;;;;;;3.25;2.35;;;;;;;;;;5070755;28;20066;-72
2021/06/07 12:16:37;;;;;;;4.15;2.25;;;;;;;;;;5051241;28;20079;-72
2021/06/07 12:19:30;;;;;;;3.13;2.50;;;;;;;;;;5075534;28;20042;-73
2021/06/07 12:22:30;;;;;;;2.63;2.33;;;;;;;;;;5086738;28;20050;-72
2021/06/07 12:28:19;;;;;;;2.90;2.40;;;;;;;;;;5096316;28;20059;-72
2021/06/07 12:31:04;;;;;;;3.08;2.50;;;;;;;;;;5080027;28;20081;-72
2021/06/07 12:33:48;;;;;;;2.50;2.20;;;;;;;;;;5065913;28;20143;-72
2021/06/07 12:36:34;;;;;;;3.92;2.35;;;;;;;;;;5088258;28;20423;-73
2021/06/07 12:39:18;;;;;;;2.83;2.30;;;;;;;;;;5068513;28;20119;-72
2021/06/07 12:42:03;;;;;;;3.47;2.45;;;;;;;;;;5061922;28;20047;-72
2021/06/07 12:44:48;;;;;;;3.25;2.45;;;;;;;;;;5059564;28;20074;-72
2021/06/07 12:47:33;;;;;;;3.38;2.20;;;;;;;;;;5086563;28;20030;-73
2021/06/07 12:50:22;;;;;;;3.85;2.40;;;;;;;;;;5072077;28;20047;-72
2021/06/07 12:53:07;;;;;;;3.38;2.20;;;;;;;;;;5089416;28;20989;-72
2021/06/07 12:55:52;;;;;;;2.75;2.20;;;;;;;;;;5069716;28;20051;-72
2021/06/07 12:58:44;;;;;;;3.08;2.25;;;;;;;;;;5081994;28;20070;-72
2021/06/07 13:01:35;;;;;;;3.22;2.30;;;;;;;;;;5093055;28;20047;-73
2021/06/07 13:04:34;;;;;;;3.05;2.05;;;;;;;;;;5083145;28;20061;-73
2021/06/07 13:07:20;;;;;;;6.20;2.42;;;;;;;;;;5083887;28;20167;-72
2021/06/07 13:10:20;;;;;;;3.10;2.13;;;;;;;;;;5080773;28;20473;-73
2021/06/07 13:13:04;;;;;;;3.67;2.30;;;;;;;;;;5090602;28;20690;-72
2021/06/07 13:16:03;;;;;;;2.78;2.15;;;;;;;;;;5104167;28;20045;-72
2021/06/07 13:18:54;;;;;;;3.40;2.25;;;;;;;;;;5059319;28;20173;-72
2021/06/07 13:21:49;;;;;;;3.20;2.35;;;;;;;;;;5065280;28;20051;-72
2021/06/07 13:24:35;;;;;;;2.55;2.10;;;;;;;;;;5094163;28;20100;-72
2021/06/07 13:27:26;;;;;;;4.25;2.30;;;;;;;;;;5069888;28;20125;-72
2021/06/07 13:30:11;;;;;;;3.05;2.33;;;;;;;;;;5086826;28;20080;-72
2021/06/07 13:32:55;;;;;;;2.47;2.10;;;;;;;;;;5079722;28;20116;-72
2021/06/07 13:35:40;;;;;;;3.38;2.35;;;;;;;;;;5089726;28;20735;-73
2021/06/07 13:38:37;;;;;;;2.97;2.00;;;;;;;;;;5073217;28;20527;-73
2021/06/07 13:41:22;;;;;;;2.83;2.00;;;;;;;;;;5086905;28;20038;-72
2021/06/07 13:44:07;;;;;;;2.63;1.98;;;;;;;;;;5089940;28;20043;-73
2021/06/07 13:47:01;;;;;;;2.85;2.10;;;;;;;;;;5074521;28;20119;-72
2021/06/07 13:49:46;;;;;;;3.08;2.35;;;;;;;;;;5075790;28;20039;-72
2021/06/07 13:52:40;;;;;;;4.18;1.95;;;;;;;;;;5066044;28;20043;-72
2021/06/07 13:55:30;;;;;;;2.50;2.05;;;;;;;;;;5084018;28;20100;-73
2021/06/07 13:58:15;;;;;;;3.13;2.00;;;;;;;;;;5086207;28;20045;-72
2021/06/07 14:01:00;;;;;;;2.75;2.10;;;;;;;;;;5069712;28;20034;-72
2021/06/07 14:03:44;;;;;;;4.30;1.90;;;;;;;;;;5089549;28;20081;-72
2021/06/07 14:06:31;;;;;;;2.65;1.88;;;;;;;;;;5059071;28;20042;-72
2021/06/07 14:09:16;;;;;;;2.75;1.95;;;;;;;;;;5051795;28;20043;-72
2021/06/07 14:12:01;;;;;;;2.75;1.73;;;;;;;;;;5071982;28;20089;-72
2021/06/07 14:14:45;;;;;;;2.55;1.80;;;;;;;;;;5089681;28;20030;-72
2021/06/07 14:17:32;;;;;;;4.50;2.28;;;;;;;;;;5089528;28;20522;-72
2021/06/07 14:20:16;;;;;;;3.67;1.90;;;;;;;;;;5090073;28;20038;-74
2021/06/07 14:26:05;;;;;;;2.50;1.83;;;;;;;;;;5077291;28;20051;-72
2021/06/07 14:28:50;;;;;;;3.75;1.80;;;;;;;;;;5066838;28;20110;-73
2021/06/07 14:31:35;;;;;;;2.45;1.65;;;;;;;;;;5069334;28;20039;-73
2021/06/07 14:34:21;;;;;;;3.92;1.88;;;;;;;;;;5075105;28;20054;-73
2021/06/07 14:37:06;;;;;;;2.28;1.73;;;;;;;;;;5071670;28;20038;-73
2021/06/07 14:39:52;;;;;;;2.65;1.75;;;;;;;;;;5070133;28;20070;-74
2021/06/07 14:42:37;;;;;;;2.83;1.95;;;;;;;;;;5073173;28;20038;-73
2021/06/07 14:45:22;;;;;;;2.83;1.75;;;;;;;;;;5069560;28;20075;-73
2021/06/07 14:48:07;;;;;;;2.63;1.90;;;;;;;;;;5062513;28;20445;-73
2021/06/07 14:50:52;;;;;;;2.90;1.70;;;;;;;;;;5090186;28;20043;-73
2021/06/07 14:53:36;;;;;;;2.90;1.60;;;;;;;;;;5071784;28;20078;-73
2021/06/07 14:56:21;;;;;;;3.35;1.75;;;;;;;;;;5072444;28;20886;-73
2021/06/07 14:59:06;;;;;;;4.03;1.70;;;;;;;;;;5078935;28;20124;-72
2021/06/07 15:01:51;;;;;;;3.33;1.70;;;;;;;;;;5082938;28;20099;-72
2021/06/07 15:04:36;;;;;;;2.97;1.73;;;;;;;;;;5051438;28;20094;-73
2021/06/07 15:07:20;;;;;;;2.95;1.60;;;;;;;;;;5086076;28;20062;-73
2021/06/07 15:10:05;;;;;;;2.55;1.80;;;;;;;;;;5076937;28;20423;-73
2021/06/07 15:12:50;;;;;;;3.63;1.52;;;;;;;;;;5071245;28;20432;-73
2021/06/07 15:15:34;;;;;;;2.80;1.83;;;;;;;;;;5071705;28;20051;-73
2021/06/07 15:18:19;;;;;;;2.22;1.65;;;;;;;;;;5073102;28;20046;-74
2021/06/07 15:21:04;;;;;;;3.38;1.70;;;;;;;;;;5056579;28;20085;-74
2021/06/07 15:23:48;;;;;;;2.72;1.60;;;;;;;;;;5072061;28;20893;-74
2021/06/07 15:26:33;;;;;;;2.60;1.60;;;;;;;;;;5065288;28;20523;-73
2021/06/07 15:29:17;;;;;;;3.80;1.98;;;;;;;;;;5091355;28;20038;-73
2021/06/07 15:32:02;;;;;;;2.45;1.67;;;;;;;;;;5075837;28;20054;-73
2021/06/07 15:35:07;;;;;;;4.05;1.85;;;;;;;;;;5070041;28;20034;-72
2021/06/07 15:37:52;;;;;;;2.38;1.50;;;;;;;;;;5091454;28;20082;-72
2021/06/07 15:40:36;;;;;;;2.50;1.63;;;;;;;;;;5091504;28;20063;-73
2021/06/07 15:43:21;;;;;;;3.40;1.67;;;;;;;;;;5073770;28;20089;-73
2021/06/07 15:46:06;;;;;;;4.40;1.70;;;;;;;;;;5067290;28;20062;-73
2021/06/07 15:48:51;;;;;;;3.42;1.50;;;;;;;;;;5085552;28;20036;-74
2021/06/07 15:51:36;;;;;;;2.70;1.80;;;;;;;;;;5067066;28;20452;-73
2021/06/07 15:54:22;;;;;;;2.72;1.70;;;;;;;;;;5076509;28;20066;-73
2021/06/07 15:57:07;;;;;;;2.65;1.75;;;;;;;;;;5057020;28;20043;-73
2021/06/07 15:59:52;;;;;;;4.68;1.80;;;;;;;;;;5090008;28;20537;-73
2021/06/07 16:02:37;;;;;;;2.67;1.55;;;;;;;;;;5092379;28;20535;-73
2021/06/07 16:05:21;;;;;;;3.10;1.80;;;;;;;;;;5062792;28;20131;-73
2021/06/07 16:08:06;;;;;;;2.03;1.52;;;;;;;;;;5070715;28;20043;-74
2021/06/07 16:10:51;;;;;;;3.15;1.73;;;;;;;;;;5082143;28;20065;-72
2021/06/07 16:13:36;;;;;;;2.38;1.70;;;;;;;;;;5090568;28;20108;-72
2021/06/07 16:16:26;;;;;;;3.03;1.70;;;;;;;;;;5077211;28;20147;-73
2021/06/07 16:19:13;;;;;;;2.63;1.60;;;;;;;;;;5076965;28;20085;-73
2021/06/07 16:21:58;;;;;;;2.88;1.70;;;;;;;;;;5089028;28;20409;-73
2021/06/07 16:24:43;;;;;;;2.63;2.00;;;;;;;;;;5081536;28;20049;-72
2021/06/07 16:27:27;;;;;;;3.17;1.80;;;;;;;;;;5091103;28;20931;-73
2021/06/07 16:30:12;;;;;;;2.20;1.60;;;;;;;;;;5076727;28;20081;-73
2021/06/07 16:32:57;;;;;;;3.20;1.80;;;;;;;;;;5071216;28;20124;-73
2021/06/07 16:35:42;;;;;;;3.63;1.90;;;;;;;;;;5069932;28;20043;-73
2021/06/07 16:38:27;;;;;;;3.20;1.83;;;;;;;;;;5069880;28;20104;-73
2021/06/07 16:41:12;;;;;;;2.47;1.70;;;;;;;;;;5069738;28;20039;-73